Time;durP1;ratioP1;P1;durP2;ratioP2;P2;SDS_P1;SDS_P2;PMS_P1;PMS_P2;Temp;Humidity;BMP_temperature;BMP_pressure;BME280_temperature;BME280_humidity;BME280_pressure;Samples;Min_cycle;Max_cycle;Signal;HPM_P1;HPM_P2
2023/12/17 00:01:15;;;;;;;;;;;;;;;;;;6326922;27;19931;-88
2023/12/17 00:04:15;;;;;;;;;;;;;;;;;;6330157;28;19942;-88
2023/12/17 00:07:15;;;;;;;;;;;;;;;;;;6333337;28;19967;-87
2023/12/17 00:10:17;;;;;;;;;;;;;;;;;;6329079;28;19999;-87
2023/12/17 00:13:18;;;;;;;;;;;;;;;;;;6343788;28;20308;-87
2023/12/17 00:16:18;;;;;;;;;;;;;;;;;;6338381;28;19916;-87
2023/12/17 00:19:18;;;;;;;;;;;;;;;;;;6308709;28;19967;-87
2023/12/17 00:22:18;;;;;;;;;;;;;;;;;;6330120;28;20383;-87
2023/12/17 00:25:18;;;;;;;;;;;;;;;;;;6345614;28;20303;-87
2023/12/17 00:28:18;;;;;;;;;;;;;;;;;;6347644;28;19923;-87
2023/12/17 00:31:19;;;;;;;;;;;;;;;;;;6328862;28;19908;-87
2023/12/17 00:34:19;;;;;;;;;;;;;;;;;;6348334;28;19912;-87
2023/12/17 00:37:19;;;;;;;;;;;;;;;;;;6329510;28;19907;-86
2023/12/17 00:40:19;;;;;;;;;;;;;;;;;;6347044;28;19923;-87
2023/12/17 00:43:19;;;;;;;;;;;;;;;;;;6323953;28;19994;-87
2023/12/17 00:46:19;;;;;;;;;;;;;;;;;;6343690;28;19998;-87
2023/12/17 00:49:19;;;;;;;;;;;;;;;;;;6327655;28;19919;-87
2023/12/17 00:52:21;;;;;;;;;;;;;;;;;;6329552;28;19912;-87
2023/12/17 00:55:22;;;;;;;;;;;;;;;;;;6346742;28;20002;-87
2023/12/17 00:58:22;;;;;;;;;;;;;;;;;;6344689;28;19927;-86
2023/12/17 01:01:22;;;;;;;;;;;;;;;;;;6346116;27;20359;-87
2023/12/17 01:04:22;;;;;;;;;;;;;;;;;;6323818;28;19923;-87
2023/12/17 01:07:22;;;;;;;;;;;;;;;;;;5977233;28;10000510;-87
2023/12/17 01:10:22;;;;;;;;;;;;;;;;;;6336206;28;20327;-87
2023/12/17 01:13:22;;;;;;;;;;;;;;;;;;6315695;28;19916;-87
2023/12/17 01:16:23;;;;;;;;;;;;;;;;;;6349441;28;19964;-87
2023/12/17 01:19:23;;;;;;;;;;;;;;;;;;6348836;28;19961;-87
2023/12/17 01:22:23;;;;;;;;;;;;;;;;;;6348809;28;20322;-87
2023/12/17 01:25:23;;;;;;;;;;;;;;;;;;6348988;28;20313;-87
2023/12/17 01:28:24;;;;;;;;;;;;;;;;;;6348083;28;19998;-87
2023/12/17 01:31:24;;;;;;;;;;;;;;;;;;6346430;28;19934;-86
2023/12/17 01:34:24;;;;;;;;;;;;;;;;;;6330470;28;20053;-87
2023/12/17 01:37:24;;;;;;;;;;;;;;;;;;6349452;28;19908;-87
2023/12/17 01:40:24;;;;;;;;;;;;;;;;;;6323589;28;19919;-87
2023/12/17 01:43:24;;;;;;;;;;;;;;;;;;6330248;27;20336;-87
2023/12/17 01:46:25;;;;;;;;;;;;;;;;;;6349336;28;19951;-87
2023/12/17 01:49:25;;;;;;;;;;;;;;;;;;6352880;28;19916;-87
2023/12/17 01:52:25;;;;;;;;;;;;;;;;;;6336087;28;19908;-88
2023/12/17 01:55:25;;;;;;;;;;;;;;;;;;6334789;28;19919;-86
2023/12/17 01:58:25;;;;;;;;;;;;;;;;;;6352301;28;19919;-87
2023/12/17 02:01:25;;;;;;;;;;;;;;;;;;6346703;27;19920;-87
2023/12/17 02:04:25;;;;;;;;;;;;;;;;;;6331831;28;19920;-87
2023/12/17 02:07:26;;;;;;;;;;;;;;;;;;6353519;28;20360;-87
2023/12/17 02:10:26;;;;;;;;;;;;;;;;;;6331603;28;20359;-87
2023/12/17 02:13:26;;;;;;;;;;;;;;;;;;6333853;28;19912;-87
2023/12/17 02:16:26;;;;;;;;;;;;;;;;;;6353493;28;20303;-87
2023/12/17 02:19:26;;;;;;;;;;;;;;;;;;6334573;28;20352;-87
2023/12/17 02:22:26;;;;;;;;;;;;;;;;;;6330077;28;19954;-87
2023/12/17 02:25:27;;;;;;;;;;;;;;;;;;6349841;28;19939;-87
2023/12/17 02:28:27;;;;;;;;;;;;;;;;;;6339536;28;19912;-87
2023/12/17 02:31:27;;;;;;;;;;;;;;;;;;6348753;28;19912;-87
2023/12/17 02:34:29;;;;;;;;;;;;;;;;;;6352900;28;19919;-87
2023/12/17 02:37:29;;;;;;;;;;;;;;;;;;6333713;28;20371;-87
2023/12/17 02:40:29;;;;;;;;;;;;;;;;;;6351875;28;19922;-87
2023/12/17 02:43:30;;;;;;;;;;;;;;;;;;6351109;28;20353;-87
2023/12/17 02:46:30;;;;;;;;;;;;;;;;;;6353899;28;19908;-86
2023/12/17 02:49:31;;;;;;;;;;;;;;;;;;6353194;28;20010;-86
2023/12/17 02:52:32;;;;;;;;;;;;;;;;;;6347137;28;19912;-88
2023/12/17 02:55:32;;;;;;;;;;;;;;;;;;6334550;28;19930;-87
2023/12/17 02:58:32;;;;;;;;;;;;;;;;;;6333450;28;20006;-86
2023/12/17 03:01:32;;;;;;;;;;;;;;;;;;6344422;27;19972;-86
2023/12/17 03:04:32;;;;;;;;;;;;;;;;;;6333840;28;19912;-88
2023/12/17 03:07:33;;;;;;;;;;;;;;;;;;6335933;28;19930;-86
2023/12/17 03:10:33;;;;;;;;;;;;;;;;;;6347101;28;19912;-86
2023/12/17 03:13:33;;;;;;;;;;;;;;;;;;6351072;28;20298;-85
2023/12/17 03:16:33;;;;;;;;;;;;;;;;;;6331352;28;19912;-86
2023/12/17 03:19:33;;;;;;;;;;;;;;;;;;6321647;28;19924;-86
2023/12/17 03:22:33;;;;;;;;;;;;;;;;;;6332733;28;20264;-87
2023/12/17 03:25:34;;;;;;;;;;;;;;;;;;6318670;28;20284;-87
2023/12/17 03:28:34;;;;;;;;;;;;;;;;;;6333577;28;20355;-87
2023/12/17 03:31:34;;;;;;;;;;;;;;;;;;6350409;28;19912;-87
2023/12/17 03:34:34;;;;;;;;;;;;;;;;;;6351787;28;19911;-87
2023/12/17 03:37:34;;;;;;;;;;;;;;;;;;6334695;28;19915;-86
2023/12/17 03:40:34;;;;;;;;;;;;;;;;;;6331021;28;19920;-87
2023/12/17 03:43:35;;;;;;;;;;;;;;;;;;6352400;28;19957;-87
2023/12/17 03:46:35;;;;;;;;;;;;;;;;;;6333555;28;19912;-87
2023/12/17 03:49:35;;;;;;;;;;;;;;;;;;6329300;28;19982;-86
2023/12/17 03:52:35;;;;;;;;;;;;;;;;;;6341661;28;19989;-86
2023/12/17 03:55:35;;;;;;;;;;;;;;;;;;6350412;28;19992;-86
2023/12/17 03:58:35;;;;;;;;;;;;;;;;;;6350784;28;20336;-85
2023/12/17 04:01:35;;;;;;;;;;;;;;;;;;6347773;28;19920;-86
2023/12/17 04:04:35;;;;;;;;;;;;;;;;;;6343487;28;19916;-86
2023/12/17 04:07:36;;;;;;;;;;;;;;;;;;6333523;28;19919;-86
2023/12/17 04:10:36;;;;;;;;;;;;;;;;;;6349819;28;19912;-86
2023/12/17 04:13:36;;;;;;;;;;;;;;;;;;6332452;28;19911;-86
2023/12/17 04:16:36;;;;;;;;;;;;;;;;;;6333238;28;19958;-86
2023/12/17 04:19:36;;;;;;;;;;;;;;;;;;6350684;28;20280;-85
2023/12/17 04:22:36;;;;;;;;;;;;;;;;;;6351129;28;20027;-86
2023/12/17 04:25:36;;;;;;;;;;;;;;;;;;6347379;28;19914;-88
2023/12/17 04:28:37;;;;;;;;;;;;;;;;;;6327512;28;19947;-88
2023/12/17 04:31:37;;;;;;;;;;;;;;;;;;6329008;28;19908;-88
2023/12/17 04:34:37;;;;;;;;;;;;;;;;;;6350400;28;19919;-87
2023/12/17 04:37:37;;;;;;;;;;;;;;;;;;6349340;28;19911;-87
2023/12/17 04:40:37;;;;;;;;;;;;;;;;;;6347067;28;19923;-87
2023/12/17 04:43:37;;;;;;;;;;;;;;;;;;6331477;28;19911;-86
2023/12/17 04:46:37;;;;;;;;;;;;;;;;;;6348843;28;20065;-86
2023/12/17 04:49:38;;;;;;;;;;;;;;;;;;6344995;28;19967;-86
2023/12/17 04:52:38;;;;;;;;;;;;;;;;;;6319236;28;19957;-87
2023/12/17 04:55:38;;;;;;;;;;;;;;;;;;6327871;28;19915;-87
2023/12/17 04:58:38;;;;;;;;;;;;;;;;;;6326898;28;19954;-87
2023/12/17 05:01:38;;;;;;;;;;;;;;;;;;6328299;28;19968;-87
2023/12/17 05:04:38;;;;;;;;;;;;;;;;;;6306772;28;20006;-87
2023/12/17 05:07:39;;;;;;;;;;;;;;;;;;6306118;28;20413;-86
2023/12/17 05:10:39;;;;;;;;;;;;;;;;;;6305026;28;19914;-87
2023/12/17 05:13:39;;;;;;;;;;;;;;;;;;6326584;28;20011;-87
2023/12/17 05:16:39;;;;;;;;;;;;;;;;;;6306107;28;19955;-86
2023/12/17 05:19:39;;;;;;;;;;;;;;;;;;6332129;28;20367;-86
2023/12/17 05:22:40;;;;;;;;;;;;;;;;;;6330841;28;19912;-87
2023/12/17 05:25:40;;;;;;;;;;;;;;;;;;6348488;28;19918;-86
2023/12/17 05:28:41;;;;;;;;;;;;;;;;;;6326733;28;20134;-87
2023/12/17 05:31:41;;;;;;;;;;;;;;;;;;6319469;28;20008;-86
2023/12/17 05:34:41;;;;;;;;;;;;;;;;;;6342437;28;19912;-87
2023/12/17 05:37:41;;;;;;;;;;;;;;;;;;6349120;28;19959;-87
2023/12/17 05:40:42;;;;;;;;;;;;;;;;;;6329062;28;19931;-87
2023/12/17 05:43:42;;;;;;;;;;;;;;;;;;6331682;28;19920;-87
2023/12/17 05:46:42;;;;;;;;;;;;;;;;;;6311024;28;19911;-86
2023/12/17 05:49:42;;;;;;;;;;;;;;;;;;6347688;28;20381;-87
2023/12/17 05:52:42;;;;;;;;;;;;;;;;;;6338067;28;19982;-87
2023/12/17 05:55:43;;;;;;;;;;;;;;;;;;6332841;28;20391;-87
2023/12/17 05:58:44;;;;;;;;;;;;;;;;;;6341887;28;19926;-87
2023/12/17 06:01:44;;;;;;;;;;;;;;;;;;6312280;28;20315;-87
2023/12/17 06:04:44;;;;;;;;;;;;;;;;;;6330133;28;19916;-87
2023/12/17 06:07:44;;;;;;;;;;;;;;;;;;6343778;28;19912;-86
2023/12/17 06:10:44;;;;;;;;;;;;;;;;;;6347635;28;19915;-87
2023/12/17 06:13:45;;;;;;;;;;;;;;;;;;6348783;28;19947;-86
2023/12/17 06:16:45;;;;;;;;;;;;;;;;;;6337471;28;19919;-87
2023/12/17 06:19:45;;;;;;;;;;;;;;;;;;6323321;28;19916;-86
2023/12/17 06:22:45;;;;;;;;;;;;;;;;;;6346437;28;19923;-86
2023/12/17 06:25:45;;;;;;;;;;;;;;;;;;6335622;28;19912;-86
2023/12/17 06:28:45;;;;;;;;;;;;;;;;;;6338234;28;19911;-86
2023/12/17 06:31:46;;;;;;;;;;;;;;;;;;6347064;28;19912;-86
2023/12/17 06:34:46;;;;;;;;;;;;;;;;;;6349407;28;19908;-86
2023/12/17 06:37:46;;;;;;;;;;;;;;;;;;6349737;28;19919;-86
2023/12/17 06:40:46;;;;;;;;;;;;;;;;;;6350990;28;20353;-86
2023/12/17 06:43:46;;;;;;;;;;;;;;;;;;6351803;28;19994;-86
2023/12/17 06:46:47;;;;;;;;;;;;;;;;;;6345070;28;20339;-86
2023/12/17 06:49:47;;;;;;;;;;;;;;;;;;6327054;28;19961;-86
2023/12/17 06:52:47;;;;;;;;;;;;;;;;;;6343497;28;19912;-86
2023/12/17 06:55:47;;;;;;;;;;;;;;;;;;6347271;28;19912;-86
2023/12/17 06:58:47;;;;;;;;;;;;;;;;;;6350198;28;20018;-86
2023/12/17 07:01:47;;;;;;;;;;;;;;;;;;6340273;28;20058;-85
2023/12/17 07:04:47;;;;;;;;;;;;;;;;;;6332965;28;19947;-86
2023/12/17 07:07:48;;;;;;;;;;;;;;;;;;6339941;28;19978;-86
2023/12/17 07:10:48;;;;;;;;;;;;;;;;;;6306440;28;20367;-86
2023/12/17 07:13:49;;;;;;;;;;;;;;;;;;6321361;28;19912;-85
2023/12/17 07:16:49;;;;;;;;;;;;;;;;;;6307890;28;19999;-86
2023/12/17 07:19:49;;;;;;;;;;;;;;;;;;6338312;28;20299;-85
2023/12/17 07:22:49;;;;;;;;;;;;;;;;;;6344669;28;19934;-84
2023/12/17 07:25:49;;;;;;;;;;;;;;;;;;6334823;28;19925;-85
2023/12/17 07:28:49;;;;;;;;;;;;;;;;;;6340248;28;19957;-85
2023/12/17 07:31:50;;;;;;;;;;;;;;;;;;6350622;28;19908;-85
2023/12/17 07:34:50;;;;;;;;;;;;;;;;;;6349013;28;19911;-85
2023/12/17 07:37:50;;;;;;;;;;;;;;;;;;6325886;28;20342;-86
2023/12/17 07:40:50;;;;;;;;;;;;;;;;;;6344298;27;20076;-86
2023/12/17 07:43:50;;;;;;;;;;;;;;;;;;6350815;28;20010;-87
2023/12/17 07:46:50;;;;;;;;;;;;;;;;;;6351196;28;20010;-86
2023/12/17 07:49:51;;;;;;;;;;;;;;;;;;6349185;28;20364;-86
2023/12/17 07:52:51;;;;;;;;;;;;;;;;;;6337233;28;20053;-84
2023/12/17 07:55:56;;;;;;;;;;;;;;;;;;6324448;28;19908;-84
2023/12/17 07:58:57;;;;;;;;;;;;;;;;;;6328253;28;19965;-84
2023/12/17 08:01:57;;;;;;;;;;;;;;;;;;6323413;28;19919;-84
2023/12/17 08:04:57;;;;;;;;;;;;;;;;;;6340889;28;19927;-88
2023/12/17 08:07:57;;;;;;;;;;;;;;;;;;6342095;28;19908;-84
2023/12/17 08:10:57;;;;;;;;;;;;;;;;;;6334809;28;19915;-85
2023/12/17 08:13:57;;;;;;;;;;;;;;;;;;6340222;28;19912;-84
2023/12/17 08:16:57;;;;;;;;;;;;;;;;;;6333986;28;19922;-87
2023/12/17 08:19:58;;;;;;;;;;;;;;;;;;6334550;28;19927;-89
2023/12/17 08:22:58;;;;;;;;;;;;;;;;;;6319250;28;20268;-86
2023/12/17 08:25:58;;;;;;;;;;;;;;;;;;6331347;28;19926;-89
2023/12/17 08:28:58;;;;;;;;;;;;;;;;;;6337684;28;19939;-87
2023/12/17 08:31:58;;;;;;;;;;;;;;;;;;6320892;28;20271;-86
2023/12/17 08:34:59;;;;;;;;;;;;;;;;;;6338112;28;19994;-86
2023/12/17 08:38:03;;;;;;;;;;;;;;;;;;6344782;28;20756;-86
2023/12/17 08:41:03;;;;;;;;;;;;;;;;;;6340932;28;20296;-87
2023/12/17 08:44:03;;;;;;;;;;;;;;;;;;6321791;28;20399;-86
2023/12/17 08:47:04;;;;;;;;;;;;;;;;;;6325059;28;20359;-85
2023/12/17 08:50:04;;;;;;;;;;;;;;;;;;6332654;28;19912;-86
2023/12/17 08:53:04;;;;;;;;;;;;;;;;;;6342002;28;19915;-86
2023/12/17 08:56:04;;;;;;;;;;;;;;;;;;6321324;28;19915;-87
2023/12/17 08:59:04;;;;;;;;;;;;;;;;;;6341092;28;19968;-84
2023/12/17 09:02:04;;;;;;;;;;;;;;;;;;6336083;28;19924;-86
2023/12/17 09:05:04;;;;;;;;;;;;;;;;;;6337804;28;19912;-85
2023/12/17 09:08:05;;;;;;;;;;;;;;;;;;6340953;28;19920;-86
2023/12/17 09:11:05;;;;;;;;;;;;;;;;;;6344605;28;19915;-86
2023/12/17 09:14:07;;;;;;;;;;;;;;;;;;6335218;28;19912;-86
2023/12/17 09:17:07;;;;;;;;;;;;;;;;;;6338575;28;19912;-85
2023/12/17 09:20:07;;;;;;;;;;;;;;;;;;6349097;28;19919;-85
2023/12/17 09:23:07;;;;;;;;;;;;;;;;;;6331748;28;19919;-86
2023/12/17 09:26:07;;;;;;;;;;;;;;;;;;6348757;28;19908;-86
2023/12/17 09:29:07;;;;;;;;;;;;;;;;;;6348549;28;19912;-86
2023/12/17 09:32:09;;;;;;;;;;;;;;;;;;6325378;28;20050;-85
2023/12/17 09:35:10;;;;;;;;;;;;;;;;;;6331721;28;19912;-87
2023/12/17 09:38:10;;;;;;;;;;;;;;;;;;6331305;28;19915;-87
2023/12/17 09:41:11;;;;;;;;;;;;;;;;;;6321568;28;20265;-86
2023/12/17 09:44:11;;;;;;;;;;;;;;;;;;6322837;28;20455;-86
2023/12/17 09:47:11;;;;;;;;;;;;;;;;;;6347894;28;19995;-86
2023/12/17 09:50:11;;;;;;;;;;;;;;;;;;6336753;28;20011;-86
2023/12/17 09:53:11;;;;;;;;;;;;;;;;;;6323014;28;19947;-86
2023/12/17 09:56:12;;;;;;;;;;;;;;;;;;6316186;28;19916;-85
2023/12/17 09:59:13;;;;;;;;;;;;;;;;;;6345659;28;20455;-85
2023/12/17 10:02:13;;;;;;;;;;;;;;;;;;6341559;28;20276;-86
2023/12/17 10:05:13;;;;;;;;;;;;;;;;;;6343161;28;19942;-85
2023/12/17 10:08:14;;;;;;;;;;;;;;;;;;6345080;28;19912;-86
2023/12/17 10:11:14;;;;;;;;;;;;;;;;;;6339065;28;19908;-86
2023/12/17 10:14:14;;;;;;;;;;;;;;;;;;6343762;28;19911;-85
2023/12/17 10:17:14;;;;;;;;;;;;;;;;;;6335006;28;19907;-84
2023/12/17 10:20:14;;;;;;;;;;;;;;;;;;6332898;28;19923;-85
2023/12/17 10:23:15;;;;;;;;;;;;;;;;;;6332562;28;19908;-85
2023/12/17 10:26:15;;;;;;;;;;;;;;;;;;6307798;28;19924;-86
2023/12/17 10:29:15;;;;;;;;;;;;;;;;;;6351726;28;19912;-85
2023/12/17 10:32:15;;;;;;;;;;;;;;;;;;6352667;28;20350;-84
2023/12/17 10:35:16;;;;;;;;;;;;;;;;;;6352515;28;19908;-86
2023/12/17 10:38:17;;;;;;;;;;;;;;;;;;6351808;28;19912;-86
2023/12/17 10:41:17;;;;;;;;;;;;;;;;;;6331941;28;19911;-85
2023/12/17 10:44:18;;;;;;;;;;;;;;;;;;6352835;28;19907;-86
2023/12/17 10:47:18;;;;;;;;;;;;;;;;;;6352529;28;19912;-86
2023/12/17 10:50:18;;;;;;;;;;;;;;;;;;6352755;28;19912;-85
2023/12/17 10:53:18;;;;;;;;;;;;;;;;;;6342509;28;19919;-84
2023/12/17 10:56:18;;;;;;;;;;;;;;;;;;6327727;28;19915;-81
2023/12/17 10:59:18;;;;;;;;;;;;;;;;;;6340639;28;19963;-83
2023/12/17 11:02:18;;;;;;;;;;;;;;;;;;6346122;28;20402;-84
2023/12/17 11:05:19;;;;;;;;;;;;;;;;;;6347555;28;20394;-84
2023/12/17 11:08:19;;;;;;;;;;;;;;;;;;6316856;28;20354;-85
2023/12/17 11:11:19;;;;;;;;;;;;;;;;;;6331430;28;20354;-86
2023/12/17 11:14:19;;;;;;;;;;;;;;;;;;6352817;28;20319;-89
2023/12/17 11:17:19;;;;;;;;;;;;;;;;;;6331337;28;19973;-90
2023/12/17 11:20:19;;;;;;;;;;;;;;;;;;6327383;28;19916;-84
2023/12/17 11:23:20;;;;;;;;;;;;;;;;;;6350377;27;19912;-85
2023/12/17 11:26:20;;;;;;;;;;;;;;;;;;6331177;28;20364;-85
2023/12/17 11:29:20;;;;;;;;;;;;;;;;;;6342953;28;19979;-85
2023/12/17 11:32:20;;;;;;;;;;;;;;;;;;6331131;28;19916;-85
2023/12/17 11:35:20;;;;;;;;;;;;;;;;;;6348779;28;19918;-85
2023/12/17 11:38:20;;;;;;;;;;;;;;;;;;6333235;27;19912;-85
2023/12/17 11:41:21;;;;;;;;;;;;;;;;;;6346789;28;19912;-85
2023/12/17 11:44:21;;;;;;;;;;;;;;;;;;6325798;28;19912;-84
2023/12/17 11:47:21;;;;;;;;;;;;;;;;;;6343975;28;19955;-85
2023/12/17 11:50:21;;;;;;;;;;;;;;;;;;6333419;28;19907;-84
2023/12/17 11:53:22;;;;;;;;;;;;;;;;;;6349016;28;20010;-85
2023/12/17 11:56:22;;;;;;;;;;;;;;;;;;6330845;28;19977;-85
2023/12/17 11:59:22;;;;;;;;;;;;;;;;;;6348432;27;20359;-85
2023/12/17 12:02:22;;;;;;;;;;;;;;;;;;6348093;28;20412;-86
2023/12/17 12:05:22;;;;;;;;;;;;;;;;;;6350628;28;19998;-86
2023/12/17 12:08:22;;;;;;;;;;;;;;;;;;6349191;28;20015;-89
2023/12/17 12:11:23;;;;;;;;;;;;;;;;;;6330469;28;19912;-87
2023/12/17 12:14:23;;;;;;;;;;;;;;;;;;6313755;28;20359;-87
2023/12/17 12:17:23;;;;;;;;;;;;;;;;;;6343715;28;19920;-87
2023/12/17 12:20:23;;;;;;;;;;;;;;;;;;6340762;28;19924;-86
2023/12/17 12:23:23;;;;;;;;;;;;;;;;;;6337635;28;19923;-86
2023/12/17 12:26:23;;;;;;;;;;;;;;;;;;6324277;28;19915;-86
2023/12/17 12:29:23;;;;;;;;;;;;;;;;;;6331333;28;19966;-86
2023/12/17 12:32:24;;;;;;;;;;;;;;;;;;6329000;28;20007;-86
2023/12/17 12:35:29;;;;;;;;;;;;;;;;;;6336237;28;19943;-86
2023/12/17 12:38:29;;;;;;;;;;;;;;;;;;6317984;28;19912;-86
2023/12/17 12:41:29;;;;;;;;;;;;;;;;;;6342814;28;20364;-86
2023/12/17 12:44:30;;;;;;;;;;;;;;;;;;6350034;28;19908;-86
2023/12/17 12:47:30;;;;;;;;;;;;;;;;;;6322897;28;19923;-85
2023/12/17 12:50:30;;;;;;;;;;;;;;;;;;6337970;28;20382;-85
2023/12/17 12:53:30;;;;;;;;;;;;;;;;;;6329930;28;19916;-85
2023/12/17 12:56:30;;;;;;;;;;;;;;;;;;6346271;28;19912;-85
2023/12/17 12:59:30;;;;;;;;;;;;;;;;;;6349004;28;19915;-85
2023/12/17 13:02:32;;;;;;;;;;;;;;;;;;6320720;28;19927;-85
2023/12/17 13:05:33;;;;;;;;;;;;;;;;;;6348618;28;19908;-85
2023/12/17 13:08:33;;;;;;;;;;;;;;;;;;6329673;28;20286;-85
2023/12/17 13:11:33;;;;;;;;;;;;;;;;;;6345617;28;20371;-85
2023/12/17 13:14:33;;;;;;;;;;;;;;;;;;6327500;28;19934;-85
2023/12/17 13:17:33;;;;;;;;;;;;;;;;;;6346443;28;19908;-85
2023/12/17 13:20:33;;;;;;;;;;;;;;;;;;6323748;28;19923;-86
2023/12/17 13:23:34;;;;;;;;;;;;;;;;;;6338883;28;19912;-87
2023/12/17 13:26:34;;;;;;;;;;;;;;;;;;6321549;28;19912;-91
2023/12/17 13:29:34;;;;;;;;;;;;;;;;;;6325180;28;20283;-87
2023/12/17 13:32:34;;;;;;;;;;;;;;;;;;6347871;28;19918;-88
2023/12/17 13:35:35;;;;;;;;;;;;;;;;;;6319241;28;19957;-88
2023/12/17 13:38:35;;;;;;;;;;;;;;;;;;6323584;28;20062;-89
2023/12/17 13:41:35;;;;;;;;;;;;;;;;;;6326089;28;19923;-87
2023/12/17 13:44:35;;;;;;;;;;;;;;;;;;6348806;27;19918;-86
2023/12/17 13:47:35;;;;;;;;;;;;;;;;;;6324839;28;19918;-85
2023/12/17 13:50:36;;;;;;;;;;;;;;;;;;6310560;28;19908;-88
2023/12/17 13:53:36;;;;;;;;;;;;;;;;;;6327703;28;19944;-87
2023/12/17 13:56:37;;;;;;;;;;;;;;;;;;6345146;28;20298;-87
2023/12/17 13:59:37;;;;;;;;;;;;;;;;;;6350317;28;20372;-83
2023/12/17 14:02:37;;;;;;;;;;;;;;;;;;6348864;28;19962;-86
2023/12/17 14:05:37;;;;;;;;;;;;;;;;;;6348228;28;19916;-88
2023/12/17 14:08:39;;;;;;;;;;;;;;;;;;6334579;28;19915;-87
2023/12/17 14:11:41;;;;;;;;;;;;;;;;;;6344343;28;19920;-88
2023/12/17 14:14:43;;;;;;;;;;;;;;;;;;6342375;28;19933;-85
2023/12/17 14:17:43;;;;;;;;;;;;;;;;;;6333658;28;19911;-85
2023/12/17 14:20:44;;;;;;;;;;;;;;;;;;6348330;28;20378;-84
2023/12/17 14:23:45;;;;;;;;;;;;;;;;;;6350804;28;20287;-86
2023/12/17 14:26:45;;;;;;;;;;;;;;;;;;6350833;28;19908;-85
2023/12/17 14:29:46;;;;;;;;;;;;;;;;;;6327629;28;19997;-85
2023/12/17 14:32:46;;;;;;;;;;;;;;;;;;6327246;28;19995;-85
2023/12/17 14:35:46;;;;;;;;;;;;;;;;;;6352147;28;20313;-85
2023/12/17 14:38:46;;;;;;;;;;;;;;;;;;6346388;28;19919;-85
2023/12/17 14:41:46;;;;;;;;;;;;;;;;;;6331052;28;20026;-85
2023/12/17 14:44:47;;;;;;;;;;;;;;;;;;6349995;28;20395;-84
2023/12/17 14:47:47;;;;;;;;;;;;;;;;;;6340826;28;20044;-85
2023/12/17 14:50:48;;;;;;;;;;;;;;;;;;6349921;28;20466;-85
2023/12/17 14:53:48;;;;;;;;;;;;;;;;;;6348830;28;19920;-87
2023/12/17 14:56:48;;;;;;;;;;;;;;;;;;6345821;28;19920;-84
2023/12/17 14:59:48;;;;;;;;;;;;;;;;;;6350980;28;19973;-86
2023/12/17 15:02:49;;;;;;;;;;;;;;;;;;6336139;28;19920;-86
2023/12/17 15:05:49;;;;;;;;;;;;;;;;;;6351007;28;19999;-84
2023/12/17 15:08:49;;;;;;;;;;;;;;;;;;6351305;28;19927;-86
2023/12/17 15:11:49;;;;;;;;;;;;;;;;;;6345962;28;19938;-84
2023/12/17 15:14:50;;;;;;;;;;;;;;;;;;6349818;28;19916;-84
2023/12/17 15:17:51;;;;;;;;;;;;;;;;;;6323887;28;19912;-85
2023/12/17 15:20:51;;;;;;;;;;;;;;;;;;6349385;28;19916;-84
2023/12/17 15:23:51;;;;;;;;;;;;;;;;;;6350540;28;19939;-84
2023/12/17 15:26:51;;;;;;;;;;;;;;;;;;6349151;28;20355;-84
2023/12/17 15:29:52;;;;;;;;;;;;;;;;;;6342619;28;19911;-84
2023/12/17 15:32:54;;;;;;;;;;;;;;;;;;6345444;28;20027;-86
2023/12/17 15:35:54;;;;;;;;;;;;;;;;;;6326144;28;19912;-84
2023/12/17 15:38:54;;;;;;;;;;;;;;;;;;6346931;28;19916;-85
2023/12/17 15:41:58;;;;;;;;;;;;;;;;;;6330534;28;19935;-86
2023/12/17 15:44:58;;;;;;;;;;;;;;;;;;6344949;28;19993;-86
2023/12/17 15:47:59;;;;;;;;;;;;;;;;;;6340173;28;19971;-88
2023/12/17 15:50:59;;;;;;;;;;;;;;;;;;6332703;28;19950;-88
2023/12/17 15:53:59;;;;;;;;;;;;;;;;;;6350021;28;20275;-86
2023/12/17 15:56:59;;;;;;;;;;;;;;;;;;6342005;28;19920;-87
2023/12/17 16:00:04;;;;;;;;;;;;;;;;;;6339296;28;19948;-87
2023/12/17 16:03:04;;;;;;;;;;;;;;;;;;6344245;28;19924;-88
2023/12/17 16:06:04;;;;;;;;;;;;;;;;;;6331520;28;19938;-88
2023/12/17 16:09:04;;;;;;;;;;;;;;;;;;6346618;28;20279;-90
2023/12/17 16:12:05;;;;;;;;;;;;;;;;;;6348104;28;19969;-89
2023/12/17 16:15:05;;;;;;;;;;;;;;;;;;6347465;28;19994;-86
2023/12/17 16:18:05;;;;;;;;;;;;;;;;;;6342413;28;19912;-86
2023/12/17 16:21:05;;;;;;;;;;;;;;;;;;6347346;28;19919;-86
2023/12/17 16:24:05;;;;;;;;;;;;;;;;;;6345065;28;19941;-85
2023/12/17 16:27:06;;;;;;;;;;;;;;;;;;6334107;28;20405;-86
2023/12/17 16:30:06;;;;;;;;;;;;;;;;;;6342859;28;19918;-85
2023/12/17 16:33:07;;;;;;;;;;;;;;;;;;6342055;28;19908;-85
2023/12/17 16:36:07;;;;;;;;;;;;;;;;;;6314796;28;19909;-85
2023/12/17 16:39:07;;;;;;;;;;;;;;;;;;6346589;28;20303;-85
2023/12/17 16:42:07;;;;;;;;;;;;;;;;;;6347317;28;20006;-84
2023/12/17 16:45:09;;;;;;;;;;;;;;;;;;6345885;28;19912;-84
2023/12/17 16:48:09;;;;;;;;;;;;;;;;;;6327330;28;19923;-84
2023/12/17 16:51:09;;;;;;;;;;;;;;;;;;6329988;28;19916;-85
2023/12/17 16:54:10;;;;;;;;;;;;;;;;;;6347845;28;19915;-85
2023/12/17 16:57:11;;;;;;;;;;;;;;;;;;6346733;28;19912;-85
2023/12/17 17:00:11;;;;;;;;;;;;;;;;;;6346818;28;20364;-85
2023/12/17 17:03:12;;;;;;;;;;;;;;;;;;6345946;28;19927;-84
2023/12/17 17:06:12;;;;;;;;;;;;;;;;;;6328020;28;20267;-84
2023/12/17 17:09:12;;;;;;;;;;;;;;;;;;6345567;28;20002;-85
2023/12/17 17:12:12;;;;;;;;;;;;;;;;;;6339156;28;19955;-85
2023/12/17 17:15:12;;;;;;;;;;;;;;;;;;6327563;28;19912;-85
2023/12/17 17:18:13;;;;;;;;;;;;;;;;;;6328440;28;19981;-85
2023/12/17 17:21:13;;;;;;;;;;;;;;;;;;6347117;28;19923;-84
2023/12/17 17:24:13;;;;;;;;;;;;;;;;;;6345317;28;19920;-85
2023/12/17 17:27:13;;;;;;;;;;;;;;;;;;6342798;28;20060;-85
2023/12/17 17:30:14;;;;;;;;;;;;;;;;;;6347827;28;19915;-85
2023/12/17 17:33:14;;;;;;;;;;;;;;;;;;6327537;28;19916;-85
2023/12/17 17:36:14;;;;;;;;;;;;;;;;;;6345989;28;19937;-85
2023/12/17 17:39:14;;;;;;;;;;;;;;;;;;6327378;28;20002;-88
2023/12/17 17:42:14;;;;;;;;;;;;;;;;;;6345320;28;19919;-85
2023/12/17 17:45:14;;;;;;;;;;;;;;;;;;6345094;28;19911;-85
2023/12/17 17:48:15;;;;;;;;;;;;;;;;;;6346408;28;19911;-86
2023/12/17 17:51:15;;;;;;;;;;;;;;;;;;6347302;28;19934;-84
2023/12/17 17:54:15;;;;;;;;;;;;;;;;;;6346510;28;20006;-86
2023/12/17 17:57:16;;;;;;;;;;;;;;;;;;6342931;28;19918;-83
2023/12/17 18:00:16;;;;;;;;;;;;;;;;;;6327373;28;20018;-85
2023/12/17 18:03:16;;;;;;;;;;;;;;;;;;6339398;28;20022;-89
2023/12/17 18:06:16;;;;;;;;;;;;;;;;;;6330478;28;19999;-89
2023/12/17 18:09:18;;;;;;;;;;;;;;;;;;6328456;28;20039;-88
2023/12/17 18:12:18;;;;;;;;;;;;;;;;;;6332411;28;19912;-91
2023/12/17 18:15:18;;;;;;;;;;;;;;;;;;6348349;28;20272;-89
2023/12/17 18:18:18;;;;;;;;;;;;;;;;;;6324406;28;19919;-89
2023/12/17 18:21:18;;;;;;;;;;;;;;;;;;6348769;28;20428;-89
2023/12/17 18:24:18;;;;;;;;;;;;;;;;;;6346105;28;19969;-90
2023/12/17 18:27:18;;;;;;;;;;;;;;;;;;6322261;28;19943;-90
2023/12/17 18:30:19;;;;;;;;;;;;;;;;;;6342051;28;19912;-90
2023/12/17 18:33:19;;;;;;;;;;;;;;;;;;6347348;28;20392;-90
2023/12/17 18:36:19;;;;;;;;;;;;;;;;;;6347081;28;19915;-90
2023/12/17 18:39:19;;;;;;;;;;;;;;;;;;6328888;28;19916;-90
2023/12/17 18:42:19;;;;;;;;;;;;;;;;;;6345567;28;20352;-90
2023/12/17 18:45:19;;;;;;;;;;;;;;;;;;6353023;28;20364;-84
2023/12/17 18:48:19;;;;;;;;;;;;;;;;;;6346013;28;19947;-89
2023/12/17 18:51:21;;;;;;;;;;;;;;;;;;6345752;28;19937;-90
2023/12/17 18:54:21;;;;;;;;;;;;;;;;;;6353613;28;19955;-91
2023/12/17 18:57:21;;;;;;;;;;;;;;;;;;6352354;28;19908;-90
2023/12/17 19:00:21;;;;;;;;;;;;;;;;;;6350288;28;20014;-90
2023/12/17 19:03:21;;;;;;;;;;;;;;;;;;6350074;28;20007;-91
2023/12/17 19:06:22;;;;;;;;;;;;;;;;;;6354011;28;19912;-90
2023/12/17 19:09:22;;;;;;;;;;;;;;;;;;6353141;28;19912;-90
2023/12/17 19:12:22;;;;;;;;;;;;;;;;;;6352323;28;19913;-91
2023/12/17 19:15:22;;;;;;;;;;;;;;;;;;6348432;28;19912;-90
2023/12/17 19:18:22;;;;;;;;;;;;;;;;;;6331114;28;20128;-91
2023/12/17 19:21:23;;;;;;;;;;;;;;;;;;6348515;28;20022;-90
2023/12/17 19:24:23;;;;;;;;;;;;;;;;;;6350270;28;19918;-90
2023/12/17 19:27:23;;;;;;;;;;;;;;;;;;6352663;28;19918;-91
2023/12/17 19:30:23;;;;;;;;;;;;;;;;;;6352946;28;19911;-90
2023/12/17 19:33:23;;;;;;;;;;;;;;;;;;6353032;28;19912;-91
2023/12/17 19:36:23;;;;;;;;;;;;;;;;;;6351123;28;19920;-90
2023/12/17 19:39:24;;;;;;;;;;;;;;;;;;6325060;28;19920;-90
2023/12/17 19:42:27;;;;;;;;;;;;;;;;;;6350629;28;19911;-90
2023/12/17 19:45:27;;;;;;;;;;;;;;;;;;6350534;28;20303;-88
2023/12/17 19:48:27;;;;;;;;;;;;;;;;;;6343543;28;20006;-89
2023/12/17 19:51:28;;;;;;;;;;;;;;;;;;6350027;28;19918;-89
2023/12/17 19:54:28;;;;;;;;;;;;;;;;;;6349786;28;19912;-90
2023/12/17 19:57:28;;;;;;;;;;;;;;;;;;6349265;28;19911;-89
2023/12/17 20:00:28;;;;;;;;;;;;;;;;;;6349726;28;19967;-86
2023/12/17 20:03:29;;;;;;;;;;;;;;;;;;6354818;27;19923;-86
2023/12/17 20:06:29;;;;;;;;;;;;;;;;;;6355123;27;19930;-86
2023/12/17 20:09:29;;;;;;;;;;;;;;;;;;6336754;28;19935;-86
2023/12/17 20:12:29;;;;;;;;;;;;;;;;;;6329912;28;19912;-87
2023/12/17 20:15:29;;;;;;;;;;;;;;;;;;6346835;28;19915;-86
2023/12/17 20:18:29;;;;;;;;;;;;;;;;;;6331195;28;19915;-86
2023/12/17 20:21:29;;;;;;;;;;;;;;;;;;6348052;27;20189;-87
2023/12/17 20:24:30;;;;;;;;;;;;;;;;;;6340460;28;19912;-82
2023/12/17 20:27:31;;;;;;;;;;;;;;;;;;6330034;28;19908;-86
2023/12/17 20:30:32;;;;;;;;;;;;;;;;;;6324313;28;19919;-82